createdAt,value
2019-02-02T00:04:59.793Z,989.8
2019-02-02T00:09:59.968Z,989.9
2019-02-02T00:14:59.756Z,990.1
2019-02-02T00:20:00.601Z,990.1
2019-02-02T00:24:59.750Z,990.2
2019-02-02T00:29:59.774Z,990.3
2019-02-02T00:35:00.211Z,990.3
2019-02-02T00:39:59.756Z,990.9
2019-02-02T00:44:59.741Z,991.2
2019-02-02T00:49:59.763Z,991.7
2019-02-02T00:54:59.767Z,991.9
2019-02-02T00:59:59.747Z,992.1
2019-02-02T01:04:59.761Z,992.2
2019-02-02T01:10:00.026Z,992.4
2019-02-02T01:14:59.793Z,992.6
2019-02-02T01:19:59.776Z,992.7
2019-02-02T01:24:59.749Z,992.9
2019-02-02T01:29:59.748Z,993
2019-02-02T01:34:59.765Z,993.1
2019-02-02T01:39:59.784Z,993.3
2019-02-02T01:44:59.784Z,993.5
2019-02-02T01:49:59.767Z,993.5
2019-02-02T01:54:59.830Z,993.6
2019-02-02T01:59:59.752Z,993.7
2019-02-02T02:04:59.807Z,993.9
2019-02-02T02:10:00.547Z,993.7
2019-02-02T02:14:59.811Z,993.9
2019-02-02T02:19:59.793Z,993.9
2019-02-02T02:24:59.799Z,994.1
2019-02-02T02:29:59.815Z,994.3
2019-02-02T02:34:59.865Z,994.2
2019-02-02T02:39:59.796Z,994.2
2019-02-02T02:44:59.823Z,993.9
2019-02-02T02:49:59.818Z,993.8
2019-02-02T02:54:59.801Z,993.7
2019-02-02T02:59:59.820Z,993.8
2019-02-02T03:04:59.814Z,993.9
2019-02-02T03:09:59.785Z,994.2
2019-02-02T03:14:59.813Z,994.4
2019-02-02T03:19:59.847Z,994.3
2019-02-02T03:24:59.842Z,994.2
2019-02-02T03:29:59.810Z,994.2
2019-02-02T03:34:59.831Z,994.2
2019-02-02T03:39:59.852Z,994.2
2019-02-02T03:44:59.839Z,994.3
2019-02-02T03:49:59.874Z,994.3
2019-02-02T03:54:59.791Z,994.6
2019-02-02T03:59:59.866Z,994.5
2019-02-02T04:04:59.842Z,994.7
2019-02-02T04:09:59.869Z,994.7
2019-02-02T04:14:59.876Z,994.6
2019-02-02T04:19:59.836Z,994.6
2019-02-02T04:24:59.845Z,994.7
2019-02-02T04:29:59.850Z,994.8
2019-02-02T04:34:59.885Z,994.7
2019-02-02T04:39:59.867Z,995
2019-02-02T04:44:59.877Z,994.6
2019-02-02T04:50:00.032Z,994.7
2019-02-02T04:54:59.883Z,995
2019-02-02T04:59:59.827Z,995
2019-02-02T05:05:00.189Z,994.9
2019-02-02T05:09:59.855Z,995.1
2019-02-02T05:14:59.887Z,995.1
2019-02-02T05:19:59.894Z,995.1
2019-02-02T05:24:59.931Z,995.2
2019-02-02T05:29:59.909Z,995.3
2019-02-02T05:34:59.883Z,995
2019-02-02T05:39:59.896Z,994.9
2019-02-02T05:44:59.884Z,994.9
2019-02-02T05:49:59.907Z,994.9
2019-02-02T05:54:59.907Z,995
2019-02-02T05:59:59.936Z,995.1
2019-02-02T06:04:59.928Z,994.8
2019-02-02T06:09:59.965Z,994.9
2019-02-02T06:14:59.923Z,995
2019-02-02T06:19:59.957Z,995
2019-02-02T06:24:59.924Z,995.2
2019-02-02T06:30:05.365Z,995.4
2019-02-02T06:34:59.918Z,995.5
2019-02-02T06:39:59.954Z,995.7
2019-02-02T06:44:59.967Z,995.6
2019-02-02T06:49:59.921Z,995.4
2019-02-02T06:54:59.999Z,995.3
2019-02-02T06:59:59.954Z,995.4
2019-02-02T07:04:59.925Z,995.3
2019-02-02T07:09:59.960Z,995.5
2019-02-02T07:14:59.962Z,995.5
2019-02-02T07:19:59.950Z,995.6
2019-02-02T07:24:59.962Z,995.6
2019-02-02T07:30:00.510Z,995.7
2019-02-02T07:34:59.977Z,995.8
2019-02-02T07:40:00.032Z,995.8
2019-02-02T07:44:59.963Z,995.9
2019-02-02T07:50:00.015Z,995.9
2019-02-02T07:55:00.038Z,996
2019-02-02T08:00:00.184Z,996
2019-02-02T08:05:00.024Z,996.1
2019-02-02T08:10:00.018Z,995.9
2019-02-02T08:14:59.999Z,996.1
2019-02-02T08:19:59.996Z,996.1
2019-02-02T08:25:00.243Z,996.1
2019-02-02T08:30:01.035Z,995.9
2019-02-02T08:34:59.998Z,996.1
2019-02-02T08:40:03.102Z,996.1
2019-02-02T08:45:00.029Z,996.2
2019-02-02T08:50:00.026Z,995.9
2019-02-02T08:55:00.096Z,995.9
2019-02-02T09:00:00.990Z,996
2019-02-02T09:05:01.064Z,996.1
2019-02-02T09:10:00.011Z,996.3
2019-02-02T09:15:03.189Z,996.1
2019-02-02T09:20:00.027Z,996
2019-02-02T09:24:59.969Z,996
2019-02-02T09:30:00.029Z,996.3
2019-02-02T09:35:00.880Z,996.2
2019-02-02T09:40:01.182Z,996.5
2019-02-02T09:45:00.306Z,996.6
2019-02-02T09:50:01.174Z,996.7
2019-02-02T09:55:00.033Z,996.8
2019-02-02T10:00:00.173Z,996.6
2019-02-02T10:05:00.316Z,997
2019-02-02T10:10:00.115Z,997.2
2019-02-02T10:15:00.213Z,996.9
2019-02-02T10:20:00.020Z,996.8
2019-02-02T10:25:00.094Z,996.9
2019-02-02T10:30:00.087Z,997.1
2019-02-02T10:35:00.044Z,997.1
2019-02-02T10:40:00.092Z,997.3
2019-02-02T10:45:00.323Z,996.9
2019-02-02T10:50:00.092Z,997
2019-02-02T10:55:00.210Z,997
2019-02-02T11:00:00.518Z,997.1
2019-02-02T11:05:00.830Z,997
2019-02-02T11:10:00.726Z,997.5
2019-02-02T11:15:00.172Z,997.7
2019-02-02T11:20:00.372Z,997.6
2019-02-02T11:25:00.732Z,997.7
2019-02-02T11:30:00.329Z,997.8
2019-02-02T11:35:00.106Z,997.8
2019-02-02T11:40:00.273Z,997.9
2019-02-02T11:45:00.349Z,997.9
2019-02-02T11:50:00.500Z,997.8
2019-02-02T11:55:00.347Z,997.9
2019-02-02T12:00:00.177Z,997.8
2019-02-02T12:05:00.112Z,997.8
2019-02-02T12:10:00.352Z,997.7
2019-02-02T12:15:00.208Z,997.9
2019-02-02T12:20:00.188Z,997.9
2019-02-02T12:25:02.619Z,998
2019-02-02T12:30:00.201Z,997.9
2019-02-02T12:35:00.639Z,997.9
2019-02-02T12:40:00.452Z,997.8
2019-02-02T12:45:00.546Z,997.8
2019-02-02T12:50:00.199Z,998
2019-02-02T12:55:00.457Z,998
2019-02-02T13:00:00.195Z,998.1
2019-02-02T13:05:00.356Z,998
2019-02-02T13:10:00.181Z,998.2
2019-02-02T13:15:00.217Z,998.2
2019-02-02T13:20:00.294Z,998.3
2019-02-02T13:25:00.339Z,998.5
2019-02-02T13:30:00.349Z,998.7
2019-02-02T13:35:00.190Z,998.7
2019-02-02T13:40:00.499Z,998.9
2019-02-02T13:45:00.331Z,999
2019-02-02T13:50:00.662Z,999.1
2019-02-02T13:55:00.434Z,999.2
2019-02-02T14:00:00.382Z,999.3
2019-02-02T14:05:00.223Z,999.3
2019-02-02T14:10:00.330Z,999.4
2019-02-02T14:15:00.523Z,999.6
2019-02-02T14:20:00.578Z,999.7
2019-02-02T14:25:01.081Z,999.7
2019-02-02T14:30:00.326Z,999.7
2019-02-02T14:35:00.192Z,999.9
2019-02-02T14:40:00.371Z,1000
2019-02-02T14:45:00.495Z,999.9
2019-02-02T14:50:00.324Z,1000.1
2019-02-02T14:55:00.529Z,1000.2
2019-02-02T15:00:00.391Z,1000.2
2019-02-02T15:05:01.510Z,1000.4
2019-02-02T15:10:00.508Z,1000.6
2019-02-02T15:15:00.377Z,1000.5
2019-02-02T15:20:00.353Z,1000.5
2019-02-02T15:25:00.344Z,1000.6
2019-02-02T15:30:00.493Z,1000.7
2019-02-02T15:35:00.494Z,1000.8
2019-02-02T15:40:00.376Z,1000.8
2019-02-02T15:45:00.466Z,1000.6
2019-02-02T15:50:01.124Z,1000.9
2019-02-02T15:55:00.433Z,1001
2019-02-02T16:00:00.344Z,1000.9
2019-02-02T16:05:04.303Z,1001.1
2019-02-02T16:10:00.539Z,1001.1
2019-02-02T16:15:01.025Z,1001.1
2019-02-02T16:20:00.713Z,1001
2019-02-02T16:25:00.364Z,1001.1
2019-02-02T16:30:00.503Z,1001
2019-02-02T16:35:00.768Z,1001.1
2019-02-02T16:40:01.670Z,1001.2
2019-02-02T16:45:00.513Z,1001.2
2019-02-02T16:50:01.877Z,1001.3
2019-02-02T16:55:00.583Z,1001.5
2019-02-02T17:00:00.565Z,1001.4
2019-02-02T17:05:00.548Z,1001.4
2019-02-02T17:10:00.443Z,1001.3
2019-02-02T17:15:00.354Z,1001.2
2019-02-02T17:20:00.424Z,1001.2
2019-02-02T17:25:00.487Z,1001.6
2019-02-02T17:30:00.407Z,1001.5
2019-02-02T17:35:01.078Z,1001.4
2019-02-02T17:40:00.537Z,1001.4
2019-02-02T17:45:00.394Z,1001.5
2019-02-02T17:50:00.541Z,1001.7
2019-02-02T17:55:01.731Z,1001.8
2019-02-02T18:00:01.387Z,1001.7
2019-02-02T18:05:00.760Z,1001.6
2019-02-02T18:10:00.966Z,1001.6
2019-02-02T18:15:00.524Z,1001.5
2019-02-02T18:20:00.544Z,1001.6
2019-02-02T18:25:01.414Z,1001.7
2019-02-02T18:30:00.887Z,1001.9
2019-02-02T18:35:00.394Z,1001.9
2019-02-02T18:40:00.729Z,1001.9
2019-02-02T18:45:00.852Z,1001.9
2019-02-02T18:50:00.480Z,1002.1
2019-02-02T18:55:00.511Z,1002
2019-02-02T19:00:00.700Z,1001.9
2019-02-02T19:05:04.766Z,1001.7
2019-02-02T19:10:00.455Z,1001.8
2019-02-02T19:15:00.587Z,1001.8
2019-02-02T19:20:00.724Z,1001.8
2019-02-02T19:25:00.553Z,1001.6
2019-02-02T19:30:01.770Z,1001.9
2019-02-02T19:35:00.762Z,1002
2019-02-02T19:40:00.685Z,1002
2019-02-02T19:45:01.615Z,1001.8
2019-02-02T19:50:00.603Z,1001.8
2019-02-02T19:55:00.765Z,1001.8
2019-02-02T20:00:04.017Z,1001.7
2019-02-02T20:05:01.183Z,1001.6
2019-02-02T20:10:00.798Z,1001.6
2019-02-02T20:15:00.803Z,1001.8
2019-02-02T20:20:01.700Z,1002.1
2019-02-02T20:25:00.914Z,1001.8
2019-02-02T20:30:01.332Z,1001.7
2019-02-02T20:35:04.370Z,1001.8
2019-02-02T20:40:01.421Z,1001.7
2019-02-02T20:45:01.869Z,1001.6
2019-02-02T20:50:01.495Z,1001.7
2019-02-02T20:55:02.252Z,1001.7
2019-02-02T21:00:03.313Z,1001.8
2019-02-02T21:05:00.765Z,1001.7
2019-02-02T21:10:01.232Z,1001.9
2019-02-02T21:15:00.877Z,1001.9
2019-02-02T21:20:00.724Z,1001.8
2019-02-02T21:25:00.766Z,1001.9
2019-02-02T21:30:00.682Z,1001.9
2019-02-02T21:35:00.780Z,1001.9
2019-02-02T21:40:02.045Z,1002
2019-02-02T21:45:02.382Z,1002.1
2019-02-02T21:50:01.338Z,1002.1
2019-02-02T21:55:00.698Z,1002
2019-02-02T22:00:00.951Z,1002.2
2019-02-02T22:05:00.740Z,1002.3
2019-02-02T22:10:00.820Z,1002.5
2019-02-02T22:15:01.147Z,1002.4
2019-02-02T22:20:00.822Z,1002.4
2019-02-02T22:25:00.781Z,1002.4
2019-02-02T22:30:00.741Z,1002.4
2019-02-02T22:35:00.742Z,1002.5
2019-02-02T22:40:01.333Z,1002.6
2019-02-02T22:45:00.703Z,1002.5
2019-02-02T22:50:00.566Z,1002.6
2019-02-02T22:55:00.626Z,1002.5
2019-02-02T23:00:01.374Z,1002.5
2019-02-02T23:05:01.276Z,1002.6
2019-02-02T23:10:00.832Z,1002.6
2019-02-02T23:15:00.701Z,1002.6
2019-02-02T23:20:01.158Z,1002.7
2019-02-02T23:25:00.616Z,1002.6
2019-02-02T23:30:01.459Z,1002.6
2019-02-02T23:35:00.666Z,1002.6
2019-02-02T23:40:00.704Z,1002.6
2019-02-02T23:45:00.670Z,1002.6
2019-02-02T23:50:00.719Z,1002.6
2019-02-02T23:55:00.730Z,1002.6
